Terminal Aerodrome Forecast
Issued by NWS

Home | Current Version | Previous Version | Text Only | Print | Product List | Glossary On
Versions: 1 2 3 4 5 6 7 8 9 10 11 12 13 14 15 16 17 18 19 20 21
668
FTUS46 KSEW 210530
TAFHQM
TAF
KHQM 210530Z 2106/2206 22007KT P6SM FEW012
     FM210800 VRB03KT P6SM BKN010 BKN150
     FM211800 18007KT P6SM BKN025 OVC080
     FM212100 22010KT P6SM OVC060
     FM220300 20005KT P6SM OVC012=

USA.gov is the U.S. government's official web portal to all federal, state and local government web resources and services.